EGLC/LCY METAR and TAF weather

Enter ICAO airport designator
Station Type Date Time Source
EGLC METAR 2019/08/19 12:20 UTC NOAA

EGLC 191220Z AUTO 24009KT 180V290 9999 BKN039/// //////CB 20/11 Q1014


Station Type Date Time Source
EGLC Decoded METAR 2019/08/19 12:20 UTC NOAA

Station name not available
Aug 19, 2019 - 08:20 AM EDT / 2019.08.19 1220 UTC
Wind: from the WSW (240 degrees) at 10 MPH (9 KT) (direction variable):0
Visibility: greater than 7 mile(s):0
Sky conditions: mostly cloudy
Weather: Cumulonimbus clouds observed
Temperature: 68 F (20 C)
Dew Point: 51 F (11 C)
Relative Humidity: 56%
Pressure (altimeter): 29.94 in. Hg (1014 hPa)
ob: EGLC 191220Z AUTO 24009KT 180V290 9999 BKN039/// //////CB 20/11 Q1014
cycle: 12

Station Type Date Time Source
EGLC TAF 2018/10/15 21:30 UTC NOAA

TAF EGLC 152119Z 1521/1621 CNL

Example: see airport list